createdAt,value
2017-10-23T00:01:50.491Z,3.13
2017-10-23T00:04:17.251Z,3.30
2017-10-23T00:06:43.986Z,3.77
2017-10-23T00:09:10.720Z,3.30
2017-10-23T00:11:37.501Z,3.20
2017-10-23T00:14:04.245Z,3.13
2017-10-23T00:16:31.003Z,3.77
2017-10-23T00:18:58.526Z,3.27
2017-10-23T00:21:25.292Z,3.17
2017-10-23T00:23:52.976Z,2.87
2017-10-23T00:26:19.721Z,3.40
2017-10-23T00:28:46.465Z,3.17
2017-10-23T00:31:13.231Z,3.20
2017-10-23T00:33:39.959Z,3.77
2017-10-23T00:36:06.695Z,3.00
2017-10-23T00:38:33.597Z,3.37
2017-10-23T00:41:01.097Z,3.13
2017-10-23T00:43:27.836Z,3.00
2017-10-23T00:45:54.585Z,2.67
2017-10-23T00:48:21.344Z,2.97
2017-10-23T00:50:48.064Z,2.67
2017-10-23T00:53:14.817Z,3.23
2017-10-23T00:55:41.552Z,3.33
2017-10-23T00:58:08.369Z,3.00
2017-10-23T01:00:35.116Z,4.00
2017-10-23T01:03:01.869Z,3.23
2017-10-23T01:05:28.611Z,2.70
2017-10-23T01:07:55.371Z,3.17
2017-10-23T01:10:22.116Z,4.00
2017-10-23T01:12:48.840Z,3.23
2017-10-23T01:15:15.599Z,3.10
2017-10-23T01:17:43.136Z,3.23
2017-10-23T01:20:09.965Z,3.30
2017-10-23T01:22:36.753Z,2.80
2017-10-23T01:25:03.460Z,3.37
2017-10-23T01:27:30.247Z,2.40
2017-10-23T01:29:57.036Z,2.93
2017-10-23T01:32:24.113Z,3.40
2017-10-23T01:34:51.636Z,3.50
2017-10-23T01:37:18.360Z,3.37
2017-10-23T01:39:45.104Z,3.63
2017-10-23T01:42:11.865Z,4.13
2017-10-23T01:44:38.610Z,3.93
2017-10-23T01:47:06.150Z,2.43
2017-10-23T01:49:32.875Z,3.00
2017-10-23T01:51:59.624Z,4.37
2017-10-23T01:54:26.380Z,2.70
2017-10-23T01:56:53.131Z,3.23
2017-10-23T01:59:20.657Z,3.10
2017-10-23T02:01:47.403Z,3.30
2017-10-23T02:04:14.156Z,3.10
2017-10-23T02:06:40.889Z,2.73
2017-10-23T02:09:08.426Z,3.73
2017-10-23T02:11:35.154Z,3.67
2017-10-23T02:14:01.884Z,3.67
2017-10-23T02:16:28.639Z,3.50
2017-10-23T02:18:55.385Z,3.40
2017-10-23T02:21:22.128Z,4.73
2017-10-23T02:23:48.861Z,2.83
2017-10-23T02:26:15.613Z,3.10
2017-10-23T02:28:42.344Z,2.90
2017-10-23T02:31:09.088Z,3.17
2017-10-23T02:33:36.071Z,3.20
2017-10-23T02:36:02.819Z,3.53
2017-10-23T02:38:29.547Z,3.43
2017-10-23T02:40:56.298Z,2.80
2017-10-23T02:43:23.075Z,3.47
2017-10-23T02:45:49.807Z,3.00
2017-10-23T02:48:16.737Z,2.90
2017-10-23T02:50:43.450Z,3.73
2017-10-23T02:53:10.197Z,3.13
2017-10-23T02:55:36.939Z,2.97
2017-10-23T02:58:03.695Z,4.03
2017-10-23T03:00:30.430Z,3.03
2017-10-23T03:02:57.341Z,2.90
2017-10-23T03:05:24.068Z,3.17
2017-10-23T03:07:51.584Z,3.63
2017-10-23T03:10:18.406Z,3.00
2017-10-23T03:12:45.128Z,3.40
2017-10-23T03:15:11.856Z,3.57
2017-10-23T03:17:38.609Z,3.00
2017-10-23T03:20:05.445Z,3.10
2017-10-23T03:22:32.196Z,3.13
2017-10-23T03:24:58.931Z,3.57
2017-10-23T03:27:25.699Z,2.93
2017-10-23T03:29:52.461Z,3.43
2017-10-23T03:32:19.300Z,3.10
2017-10-23T03:34:46.870Z,3.27
2017-10-23T03:37:13.619Z,3.23
2017-10-23T03:39:41.143Z,2.90
2017-10-23T03:42:07.926Z,2.83
2017-10-23T03:44:35.425Z,3.53
2017-10-23T03:47:02.167Z,4.60
2017-10-23T03:49:28.925Z,3.87
2017-10-23T03:51:55.656Z,3.40
2017-10-23T03:54:22.423Z,3.53
2017-10-23T03:56:49.946Z,3.20
2017-10-23T03:59:16.942Z,3.70
2017-10-23T04:01:43.648Z,3.50
2017-10-23T04:04:10.393Z,2.67
2017-10-23T04:06:37.132Z,3.13
2017-10-23T04:09:04.647Z,3.33
2017-10-23T04:11:31.392Z,3.17
2017-10-23T04:13:58.133Z,3.03
2017-10-23T04:16:24.868Z,2.77
2017-10-23T04:18:51.624Z,3.50
2017-10-23T04:21:18.345Z,3.43
2017-10-23T04:23:45.108Z,3.10
2017-10-23T04:26:11.837Z,3.07
2017-10-23T04:28:38.567Z,3.63
2017-10-23T04:31:05.327Z,2.83
2017-10-23T04:33:32.049Z,2.87
2017-10-23T04:35:58.773Z,3.50
2017-10-23T04:38:25.519Z,3.30
2017-10-23T04:40:52.274Z,3.23
2017-10-23T04:43:19.024Z,2.90
2017-10-23T04:45:45.909Z,2.80
2017-10-23T04:48:12.738Z,3.13
2017-10-23T04:50:39.542Z,2.70
2017-10-23T04:53:06.276Z,2.70
2017-10-23T04:55:33.025Z,2.70
2017-10-23T04:57:59.776Z,2.63
2017-10-23T05:00:27.273Z,3.27
2017-10-23T05:02:54.053Z,2.60
2017-10-23T05:05:21.540Z,3.27
2017-10-23T05:07:48.279Z,2.80
2017-10-23T05:10:15.801Z,2.83
2017-10-23T05:12:42.560Z,2.80
2017-10-23T05:15:10.081Z,2.70
2017-10-23T05:17:36.836Z,2.90
2017-10-23T05:20:03.613Z,3.30
2017-10-23T05:22:31.126Z,2.43
2017-10-23T05:24:57.900Z,3.50
2017-10-23T05:27:25.393Z,2.93
2017-10-23T05:29:52.136Z,2.93
2017-10-23T05:32:18.873Z,3.90
2017-10-23T05:34:45.597Z,3.00
2017-10-23T05:37:12.341Z,3.23
2017-10-23T05:39:39.068Z,2.80
2017-10-23T05:42:05.816Z,2.97
2017-10-23T05:44:32.564Z,2.97
2017-10-23T05:46:59.319Z,3.13
2017-10-23T05:49:26.087Z,3.77
2017-10-23T05:51:52.811Z,2.60
2017-10-23T05:54:19.571Z,3.00
2017-10-23T05:56:46.305Z,3.23
2017-10-23T05:59:13.032Z,2.73
2017-10-23T06:01:39.772Z,3.10
2017-10-23T06:04:06.516Z,2.77
2017-10-23T06:06:33.267Z,2.83
2017-10-23T06:08:59.998Z,2.60
2017-10-23T06:11:26.752Z,2.67
2017-10-23T06:13:54.286Z,3.07
2017-10-23T06:16:21.022Z,3.23
2017-10-23T06:18:47.761Z,3.20
2017-10-23T06:21:14.516Z,3.20
2017-10-23T06:23:42.246Z,3.00
2017-10-23T06:26:09.265Z,3.20
2017-10-23T06:28:36.733Z,2.47
2017-10-23T06:31:03.508Z,2.53
2017-10-23T06:33:30.257Z,2.37
2017-10-23T06:35:57.000Z,2.80
2017-10-23T06:38:23.732Z,2.47
2017-10-23T06:40:51.236Z,2.50
2017-10-23T06:43:17.988Z,3.13
2017-10-23T06:45:44.712Z,3.10
2017-10-23T06:48:23.081Z,3.33
2017-10-23T06:50:49.884Z,3.33
2017-10-23T06:53:16.618Z,3.13
2017-10-23T06:55:43.399Z,3.63
2017-10-23T06:58:10.132Z,2.73
2017-10-23T07:00:36.865Z,3.33
2017-10-23T07:03:03.612Z,3.47
2017-10-23T07:05:30.359Z,3.60
2017-10-23T07:07:57.857Z,3.40
2017-10-23T07:10:24.777Z,3.00
2017-10-23T07:12:51.516Z,2.77
2017-10-23T07:15:19.033Z,3.23
2017-10-23T07:17:45.801Z,3.03
2017-10-23T07:20:13.288Z,3.23
2017-10-23T07:22:40.033Z,3.00
2017-10-23T07:25:06.862Z,3.00
2017-10-23T07:27:34.329Z,2.50
2017-10-23T07:30:01.119Z,3.40
2017-10-23T07:32:27.866Z,2.57
2017-10-23T07:34:54.614Z,3.03
2017-10-23T07:37:21.396Z,2.97
2017-10-23T07:39:48.133Z,2.77
2017-10-23T07:42:14.889Z,2.50
2017-10-23T07:44:41.892Z,2.27
2017-10-23T07:47:08.799Z,2.40
2017-10-23T07:49:35.513Z,2.57
2017-10-23T07:52:02.340Z,2.90
2017-10-23T07:54:29.081Z,2.30
2017-10-23T07:56:55.863Z,2.27
2017-10-23T07:59:22.612Z,1.97
2017-10-23T08:01:49.571Z,2.80
2017-10-23T08:04:16.313Z,2.80
2017-10-23T08:06:43.084Z,2.50
2017-10-23T08:09:11.020Z,2.63
2017-10-23T08:11:37.793Z,2.40
2017-10-23T08:14:04.529Z,2.50
2017-10-23T08:16:31.275Z,2.63
2017-10-23T08:18:58.029Z,2.40
2017-10-23T08:21:24.772Z,2.77
2017-10-23T08:23:51.500Z,2.30
2017-10-23T08:26:18.250Z,2.73
2017-10-23T08:28:44.995Z,2.90
2017-10-23T08:31:11.731Z,2.37
2017-10-23T08:33:38.480Z,2.77
2017-10-23T08:36:05.244Z,2.97
2017-10-23T08:38:32.737Z,2.50
2017-10-23T08:40:59.468Z,2.90
2017-10-23T08:43:26.204Z,2.70
2017-10-23T08:45:52.933Z,2.60
2017-10-23T08:48:19.668Z,2.67
2017-10-23T08:50:46.437Z,2.50
2017-10-23T08:53:13.181Z,2.73
2017-10-23T08:55:39.944Z,2.97
2017-10-23T08:58:06.672Z,2.80
2017-10-23T09:00:33.454Z,2.73
2017-10-23T09:03:01.465Z,2.87
2017-10-23T09:05:28.289Z,2.67
2017-10-23T09:07:55.053Z,2.67
2017-10-23T09:10:21.786Z,3.47
2017-10-23T09:12:48.525Z,2.60
2017-10-23T09:15:15.264Z,2.90
2017-10-23T09:17:42.168Z,2.87
2017-10-23T09:20:09.724Z,3.43
2017-10-23T09:22:37.218Z,2.97
2017-10-23T09:25:03.974Z,2.47
2017-10-23T09:27:30.705Z,2.70
2017-10-23T09:29:57.454Z,2.70
2017-10-23T09:32:24.169Z,2.40
2017-10-23T09:34:51.275Z,2.40
2017-10-23T09:37:18.026Z,2.37
2017-10-23T09:39:44.759Z,2.87
2017-10-23T09:42:11.504Z,2.40
2017-10-23T09:44:38.238Z,2.60
2017-10-23T09:47:04.984Z,3.27
2017-10-23T09:49:31.758Z,2.83
2017-10-23T09:51:58.544Z,2.57
2017-10-23T09:54:26.058Z,2.90
2017-10-23T09:56:52.798Z,2.60
2017-10-23T09:59:19.525Z,2.90
2017-10-23T10:01:46.261Z,3.13
2017-10-23T10:04:13.063Z,3.00
2017-10-23T10:06:39.773Z,3.13
2017-10-23T10:09:06.504Z,3.37
2017-10-23T10:11:33.253Z,3.23
2017-10-23T10:14:00.345Z,2.63
2017-10-23T10:16:27.174Z,2.80
2017-10-23T10:18:54.671Z,2.60
2017-10-23T10:21:21.465Z,3.00
2017-10-23T10:23:48.169Z,3.00
2017-10-23T10:26:14.932Z,3.40
2017-10-23T10:28:42.448Z,3.53
2017-10-23T10:31:09.167Z,3.43
2017-10-23T10:33:35.913Z,4.23
2017-10-23T10:38:35.809Z,3.57
2017-10-23T10:41:02.565Z,3.00
2017-10-23T10:43:29.325Z,4.20
2017-10-23T10:45:56.062Z,4.80
2017-10-23T10:48:22.826Z,3.63
2017-10-23T10:50:49.544Z,3.23
2017-10-23T10:53:16.291Z,4.03
2017-10-23T10:55:43.028Z,3.77
2017-10-23T10:58:09.761Z,3.70
2017-10-23T11:00:36.507Z,3.67
2017-10-23T11:03:03.287Z,3.53
2017-10-23T11:05:30.851Z,3.27
2017-10-23T11:07:57.588Z,3.37
2017-10-23T11:10:25.158Z,3.53
2017-10-23T11:12:52.704Z,3.57
2017-10-23T11:15:19.494Z,4.00
2017-10-23T11:17:46.257Z,3.17
2017-10-23T11:20:13.013Z,3.13
2017-10-23T11:22:39.750Z,2.93
2017-10-23T11:25:07.263Z,3.03
2017-10-23T11:27:34.005Z,3.07
2017-10-23T11:30:00.700Z,2.80
2017-10-23T11:32:27.461Z,3.47
2017-10-23T11:34:54.194Z,4.23
2017-10-23T11:37:20.965Z,3.90
2017-10-23T11:39:47.724Z,3.97
2017-10-23T11:42:14.539Z,3.83
2017-10-23T11:44:41.299Z,4.03
2017-10-23T11:47:08.017Z,3.70
2017-10-23T11:49:35.081Z,3.77
2017-10-23T11:52:01.808Z,4.13
2017-10-23T11:54:28.594Z,3.50
2017-10-23T11:56:55.308Z,4.17
2017-10-23T11:59:22.803Z,3.63
2017-10-23T12:01:49.552Z,3.70
2017-10-23T12:04:16.304Z,4.23
2017-10-23T12:06:43.139Z,3.90
2017-10-23T12:09:09.872Z,4.70
2017-10-23T12:11:36.686Z,4.20
2017-10-23T12:14:03.410Z,3.83
2017-10-23T12:16:30.267Z,4.10
2017-10-23T12:18:57.756Z,4.87
2017-10-23T12:21:24.508Z,4.97
2017-10-23T12:23:51.250Z,4.43
2017-10-23T12:26:18.093Z,4.87
2017-10-23T12:28:44.824Z,4.90
2017-10-23T12:31:11.568Z,4.40
2017-10-23T12:33:38.495Z,5.03
2017-10-23T12:36:05.205Z,4.37
2017-10-23T12:38:31.941Z,3.83
2017-10-23T12:40:58.701Z,4.10
2017-10-23T12:43:25.460Z,4.30
2017-10-23T12:45:52.204Z,3.30
2017-10-23T12:48:18.941Z,4.60
2017-10-23T12:50:45.704Z,4.23
2017-10-23T12:53:12.432Z,3.83
2017-10-23T12:55:39.212Z,3.97
2017-10-23T12:58:06.820Z,5.10
2017-10-23T13:00:33.580Z,3.87
2017-10-23T13:03:00.343Z,4.13
2017-10-23T13:05:28.003Z,5.03
2017-10-23T13:07:55.539Z,4.50
2017-10-23T13:10:23.048Z,4.57
2017-10-23T13:12:49.870Z,3.90
2017-10-23T13:15:17.348Z,4.00
2017-10-23T13:17:44.131Z,4.10
2017-10-23T13:20:11.626Z,3.77
2017-10-23T13:22:38.413Z,3.90
2017-10-23T13:25:05.144Z,4.20
2017-10-23T13:27:31.871Z,3.60
2017-10-23T13:29:58.616Z,3.80
2017-10-23T13:32:25.469Z,4.50
2017-10-23T13:34:52.223Z,3.70
2017-10-23T13:37:18.949Z,4.00
2017-10-23T13:39:45.712Z,3.67
2017-10-23T13:42:12.440Z,3.90
2017-10-23T13:44:39.200Z,2.90
2017-10-23T13:47:06.703Z,3.17
2017-10-23T13:49:33.486Z,3.47
2017-10-23T13:52:00.215Z,3.20
2017-10-23T13:54:26.935Z,3.00
2017-10-23T13:56:53.689Z,3.80
2017-10-23T13:59:20.424Z,3.50
2017-10-23T14:01:47.176Z,3.57
2017-10-23T14:04:13.920Z,3.80
2017-10-23T14:06:41.438Z,3.43
2017-10-23T14:09:08.185Z,3.30
2017-10-23T14:11:34.947Z,3.13
2017-10-23T14:14:01.677Z,3.63
2017-10-23T14:16:28.419Z,3.40
2017-10-23T14:18:55.164Z,3.57
2017-10-23T14:21:21.930Z,3.50
2017-10-23T14:23:48.661Z,3.60
2017-10-23T14:26:16.145Z,3.00
2017-10-23T14:28:43.037Z,3.53
2017-10-23T14:31:09.757Z,3.30
2017-10-23T14:33:36.495Z,3.57
2017-10-23T14:36:03.221Z,3.77
2017-10-23T14:38:29.956Z,3.37
2017-10-23T14:40:56.708Z,3.53
2017-10-23T14:43:23.439Z,3.70
2017-10-23T14:45:50.203Z,3.10
2017-10-23T14:48:16.940Z,2.93
2017-10-23T14:50:43.691Z,3.23
2017-10-23T14:53:10.416Z,3.67
2017-10-23T14:55:37.295Z,2.77
2017-10-23T14:58:04.033Z,2.70
2017-10-23T15:00:31.552Z,3.37
2017-10-23T15:02:58.336Z,4.07
2017-10-23T15:05:25.100Z,3.30
2017-10-23T15:07:51.850Z,3.40
2017-10-23T15:10:18.583Z,3.50
2017-10-23T15:12:45.332Z,3.60
2017-10-23T15:15:12.051Z,3.77
2017-10-23T15:17:38.800Z,3.97
2017-10-23T15:20:05.557Z,3.53
2017-10-23T15:22:32.406Z,3.83
2017-10-23T15:24:59.155Z,3.67
2017-10-23T15:27:25.891Z,3.63
2017-10-23T15:29:52.656Z,3.90
2017-10-23T15:32:20.162Z,4.07
2017-10-23T15:34:46.910Z,3.53
2017-10-23T15:37:13.651Z,3.60
2017-10-23T15:39:40.383Z,3.60
2017-10-23T15:42:07.175Z,3.90
2017-10-23T15:44:33.964Z,4.13
2017-10-23T15:47:01.064Z,4.00
2017-10-23T15:49:27.803Z,3.80
2017-10-23T15:51:55.315Z,3.20
2017-10-23T15:54:22.082Z,3.83
2017-10-23T15:56:49.579Z,4.33
2017-10-23T15:59:16.336Z,3.67
2017-10-23T16:01:43.105Z,4.53
2017-10-23T16:04:09.841Z,4.33
2017-10-23T16:06:37.022Z,4.33
2017-10-23T16:09:04.511Z,4.40
2017-10-23T16:11:31.236Z,4.03
2017-10-23T16:13:58.006Z,6.10
2017-10-23T16:16:24.752Z,5.20
2017-10-23T16:18:51.484Z,5.03
2017-10-23T16:21:18.228Z,5.60
2017-10-23T16:23:45.801Z,5.27
2017-10-23T16:26:12.544Z,5.63
2017-10-23T16:28:40.100Z,6.30
2017-10-23T16:31:06.850Z,5.70
2017-10-23T16:33:34.357Z,6.00
2017-10-23T16:36:01.097Z,5.30
2017-10-23T16:38:27.859Z,5.97
2017-10-23T16:40:54.609Z,5.43
2017-10-23T16:43:21.348Z,5.73
2017-10-23T16:45:48.094Z,6.10
2017-10-23T16:48:15.617Z,5.17
2017-10-23T16:50:42.365Z,5.47
2017-10-23T16:53:09.142Z,5.60
2017-10-23T16:55:36.688Z,6.37
2017-10-23T16:58:03.432Z,4.67
2017-10-23T17:00:30.948Z,6.00
2017-10-23T17:02:57.681Z,5.33
2017-10-23T17:05:24.463Z,5.87
2017-10-23T17:07:51.230Z,5.87
2017-10-23T17:10:17.988Z,6.07
2017-10-23T17:12:44.803Z,5.93
2017-10-23T17:15:11.509Z,5.30
2017-10-23T17:17:38.262Z,6.03
2017-10-23T17:20:05.778Z,6.00
2017-10-23T17:22:32.548Z,6.77
2017-10-23T17:24:59.287Z,6.77
2017-10-23T17:27:27.529Z,6.43
2017-10-23T17:29:54.453Z,6.90
2017-10-23T17:32:21.201Z,7.33
2017-10-23T17:34:47.933Z,6.17
2017-10-23T17:37:14.704Z,6.53
2017-10-23T17:39:41.460Z,6.57
2017-10-23T17:42:08.193Z,8.20
2017-10-23T17:44:34.907Z,7.87
2017-10-23T17:47:01.689Z,8.10
2017-10-23T17:49:29.368Z,9.20
2017-10-23T17:51:56.848Z,7.70
2017-10-23T17:54:23.630Z,6.90
2017-10-23T17:56:50.382Z,6.63
2017-10-23T17:59:17.890Z,6.80
2017-10-23T18:01:44.651Z,7.67
2017-10-23T18:04:11.553Z,8.57
2017-10-23T18:06:38.317Z,7.40
2017-10-23T18:09:05.087Z,7.07
2017-10-23T18:11:31.822Z,7.23
2017-10-23T18:13:58.617Z,6.70
2017-10-23T18:16:25.357Z,7.27
2017-10-23T18:18:52.177Z,6.40
2017-10-23T18:21:18.892Z,6.00
2017-10-23T18:23:46.434Z,7.33
2017-10-23T18:26:13.175Z,8.30
2017-10-23T18:28:39.905Z,7.63
2017-10-23T18:31:06.766Z,8.77
2017-10-23T18:33:35.002Z,8.33
2017-10-23T18:36:01.717Z,8.77
2017-10-23T18:38:28.448Z,10.43
2017-10-23T18:40:55.221Z,9.07
2017-10-23T18:43:21.964Z,9.13
2017-10-23T18:45:48.724Z,10.13
2017-10-23T18:48:15.477Z,10.47
2017-10-23T18:50:42.229Z,8.70
2017-10-23T18:53:09.748Z,8.90
2017-10-23T18:55:36.480Z,10.17
2017-10-23T18:58:04.200Z,9.50
2017-10-23T19:00:30.976Z,11.17
2017-10-23T19:02:57.797Z,10.67
2017-10-23T19:05:24.622Z,11.33
2017-10-23T19:07:51.465Z,10.30
2017-10-23T19:10:18.239Z,10.63
2017-10-23T19:12:44.993Z,10.53
2017-10-23T19:15:11.764Z,15.43
2017-10-23T19:17:40.599Z,13.93
2017-10-23T19:20:07.361Z,11.33
2017-10-23T19:22:34.097Z,12.50
2017-10-23T19:25:00.862Z,11.47
2017-10-23T19:27:27.628Z,11.27
2017-10-23T19:29:54.528Z,11.57
2017-10-23T19:32:21.307Z,10.97
2017-10-23T19:34:48.843Z,11.17
2017-10-23T19:37:16.342Z,13.20
2017-10-23T19:39:43.077Z,12.83
2017-10-23T19:42:09.877Z,14.23
2017-10-23T19:44:37.398Z,13.50
2017-10-23T19:47:04.174Z,13.70
2017-10-23T19:49:30.916Z,13.27
2017-10-23T19:51:58.500Z,12.37
2017-10-23T19:54:25.330Z,15.00
2017-10-23T19:56:52.057Z,13.80
2017-10-23T19:59:19.755Z,14.60
2017-10-23T20:01:46.501Z,14.90
2017-10-23T20:04:13.271Z,10.40
2017-10-23T20:06:39.998Z,12.37
2017-10-23T20:09:06.776Z,11.83
2017-10-23T20:11:34.300Z,13.60
2017-10-23T20:14:01.011Z,12.90
2017-10-23T20:16:27.788Z,10.33
2017-10-23T20:18:54.533Z,12.53
2017-10-23T20:21:22.068Z,12.20
2017-10-23T20:23:48.857Z,14.57
2017-10-23T20:26:16.351Z,13.53
2017-10-23T20:28:43.132Z,14.17
2017-10-23T20:31:09.886Z,13.13
2017-10-23T20:33:37.413Z,12.13
2017-10-23T20:36:04.169Z,13.90
2017-10-23T20:38:31.688Z,14.80
2017-10-23T20:40:58.440Z,12.83
2017-10-23T20:43:25.216Z,13.13
2017-10-23T20:45:52.718Z,11.27
2017-10-23T20:48:19.526Z,11.10
2017-10-23T20:50:47.028Z,11.27
2017-10-23T20:53:13.768Z,11.23
2017-10-23T20:55:40.528Z,13.03
2017-10-23T20:58:07.286Z,12.67
2017-10-23T21:00:34.816Z,13.03
2017-10-23T21:03:02.318Z,11.50
2017-10-23T21:05:29.074Z,11.90
2017-10-23T21:07:55.801Z,12.47
2017-10-23T21:10:22.576Z,12.17
2017-10-23T21:12:49.312Z,14.30
2017-10-23T21:15:16.717Z,11.53
2017-10-23T21:17:43.728Z,11.93
2017-10-23T21:20:10.454Z,13.90
2017-10-23T21:22:37.223Z,12.83
2017-10-23T21:25:04.725Z,12.80
2017-10-23T21:27:31.500Z,12.47
2017-10-23T21:29:58.249Z,12.57
2017-10-23T21:32:25.760Z,13.03
2017-10-23T21:34:52.522Z,11.73
2017-10-23T21:37:19.260Z,11.87
2017-10-23T21:39:45.964Z,12.93
2017-10-23T21:42:12.722Z,12.60
2017-10-23T21:44:39.477Z,11.97
2017-10-23T21:47:06.236Z,9.90
2017-10-23T21:49:32.998Z,11.30
2017-10-23T21:52:00.492Z,9.97
2017-10-23T21:54:27.225Z,9.80
2017-10-23T21:56:53.983Z,11.20
2017-10-23T21:59:20.825Z,10.30
2017-10-23T22:01:47.591Z,10.13
2017-10-23T22:04:14.308Z,9.03
2017-10-23T22:06:41.072Z,9.67
2017-10-23T22:09:07.801Z,9.50
2017-10-23T22:11:34.548Z,9.07
2017-10-23T22:14:01.296Z,7.90
2017-10-23T22:16:28.794Z,7.10
2017-10-23T22:18:55.567Z,7.37
2017-10-23T22:21:22.316Z,7.43
2017-10-23T22:23:49.070Z,7.13
2017-10-23T22:26:16.583Z,8.00
2017-10-23T22:28:43.320Z,7.17
2017-10-23T22:31:10.076Z,7.10
2017-10-23T22:33:36.807Z,6.77
2017-10-23T22:36:03.569Z,7.50
2017-10-23T22:38:30.288Z,7.70
2017-10-23T22:40:57.060Z,7.80
2017-10-23T22:43:24.549Z,7.20
2017-10-23T22:45:51.290Z,7.43
2017-10-23T22:48:18.081Z,7.80
2017-10-23T22:50:44.803Z,6.63
2017-10-23T22:53:11.549Z,7.27
2017-10-23T22:55:38.282Z,7.43
2017-10-23T22:58:05.119Z,7.00
2017-10-23T23:00:31.885Z,6.70
2017-10-23T23:02:58.608Z,6.40
2017-10-23T23:05:25.348Z,6.40
2017-10-23T23:07:52.093Z,6.80
2017-10-23T23:10:18.823Z,6.23
2017-10-23T23:12:45.572Z,6.40
2017-10-23T23:15:13.815Z,5.90
2017-10-23T23:17:40.568Z,6.30
2017-10-23T23:20:07.316Z,6.43
2017-10-23T23:22:34.060Z,6.13
2017-10-23T23:25:00.798Z,5.80
2017-10-23T23:27:27.529Z,5.20
2017-10-23T23:29:54.404Z,5.10
2017-10-23T23:32:21.926Z,5.50
2017-10-23T23:34:48.665Z,4.97
2017-10-23T23:37:15.424Z,5.03
2017-10-23T23:39:42.948Z,5.20
2017-10-23T23:42:09.688Z,4.87
2017-10-23T23:44:36.420Z,4.93
2017-10-23T23:47:03.165Z,4.33
2017-10-23T23:49:29.902Z,4.50
2017-10-23T23:51:56.647Z,4.47
2017-10-23T23:54:23.436Z,4.43
2017-10-23T23:56:50.180Z,4.53
2017-10-23T23:59:16.920Z,4.33
